sensor_id;sensor_type;location;lat;lon;timestamp;pressure;altitude;pressure_sealevel;temperature;humidity
57048;BME280;42934;54.294;18.598;2023-02-02T00:00:33;99185.09;;;3.02;82.82
57048;BME280;42934;54.294;18.598;2023-02-02T00:03:22;99185.94;;;3.03;82.60
57048;BME280;42934;54.294;18.598;2023-02-02T00:05:52;99188.53;;;3.03;83.33
57048;BME280;42934;54.294;18.598;2023-02-02T00:08:22;99179.88;;;3.04;83.18
57048;BME280;42934;54.294;18.598;2023-02-02T00:10:53;99177.25;;;3.05;82.82
57048;BME280;42934;54.294;18.598;2023-02-02T00:13:22;99182.41;;;3.05;82.79
57048;BME280;42934;54.294;18.598;2023-02-02T00:15:52;99185.91;;;3.04;82.80
57048;BME280;42934;54.294;18.598;2023-02-02T00:18:22;99179.81;;;3.05;83.14
57048;BME280;42934;54.294;18.598;2023-02-02T00:20:51;99170.28;;;3.07;82.99
57048;BME280;42934;54.294;18.598;2023-02-02T00:23:20;99165.13;;;3.06;82.63
57048;BME280;42934;54.294;18.598;2023-02-02T00:25:49;99171.22;;;3.05;82.89
57048;BME280;42934;54.294;18.598;2023-02-02T00:28:20;99171.19;;;3.06;83.15
57048;BME280;42934;54.294;18.598;2023-02-02T00:30:49;99169.44;;;3.07;83.12
57048;BME280;42934;54.294;18.598;2023-02-02T00:33:18;99171.88;;;3.11;83.05
57048;BME280;42934;54.294;18.598;2023-02-02T00:35:47;99169.28;;;3.13;83.22
57048;BME280;42934;54.294;18.598;2023-02-02T00:38:16;99165.75;;;3.15;82.80
57048;BME280;42934;54.294;18.598;2023-02-02T00:40:45;99165.59;;;3.20;83.07
57048;BME280;42934;54.294;18.598;2023-02-02T00:43:14;99154.38;;;3.21;83.45
57048;BME280;42934;54.294;18.598;2023-02-02T00:45:45;99163.81;;;3.24;83.29
57048;BME280;42934;54.294;18.598;2023-02-02T00:48:13;99161.13;;;3.27;83.13
57048;BME280;42934;54.294;18.598;2023-02-02T00:50:42;99161.84;;;3.32;83.41
57048;BME280;42934;54.294;18.598;2023-02-02T00:53:11;99154.97;;;3.29;83.08
57048;BME280;42934;54.294;18.598;2023-02-02T00:55:40;99154.97;;;3.31;83.46
57048;BME280;42934;54.294;18.598;2023-02-02T00:58:09;99156.63;;;3.33;83.32
57048;BME280;42934;54.294;18.598;2023-02-02T01:00:38;99153.97;;;3.35;83.21
57048;BME280;42934;54.294;18.598;2023-02-02T01:03:10;99138.41;;;3.35;83.60
57048;BME280;42934;54.294;18.598;2023-02-02T01:05:40;99140.06;;;3.37;83.28
57048;BME280;42934;54.294;18.598;2023-02-02T01:08:10;99152.09;;;3.40;83.44
57048;BME280;42934;54.294;18.598;2023-02-02T01:10:39;99140.81;;;3.41;83.71
57048;BME280;42934;54.294;18.598;2023-02-02T01:13:08;99147.69;;;3.44;83.47
57048;BME280;42934;54.294;18.598;2023-02-02T01:15:37;99144.31;;;3.41;83.53
57048;BME280;42934;54.294;18.598;2023-02-02T01:18:06;99141.69;;;3.41;83.73
57048;BME280;42934;54.294;18.598;2023-02-02T01:20:37;99137.31;;;3.44;83.76
57048;BME280;42934;54.294;18.598;2023-02-02T01:23:06;99132.97;;;3.44;83.50
57048;BME280;42934;54.294;18.598;2023-02-02T01:25:35;99139.06;;;3.43;83.95
57048;BME280;42934;54.294;18.598;2023-02-02T01:28:05;99136.44;;;3.45;84.06
57048;BME280;42934;54.294;18.598;2023-02-02T01:30:34;99128.72;;;3.41;83.73
57048;BME280;42934;54.294;18.598;2023-02-02T01:33:04;99135.56;;;3.44;84.23
57048;BME280;42934;54.294;18.598;2023-02-02T01:35:33;99138.19;;;3.42;84.21
57048;BME280;42934;54.294;18.598;2023-02-02T01:38:03;99132.97;;;3.44;83.87
57048;BME280;42934;54.294;18.598;2023-02-02T01:40:32;99136.44;;;3.43;84.21
57048;BME280;42934;54.294;18.598;2023-02-02T01:43:01;99133.84;;;3.45;84.35
57048;BME280;42934;54.294;18.598;2023-02-02T01:45:30;99136.28;;;3.49;83.97
57048;BME280;42934;54.294;18.598;2023-02-02T01:48:00;99133.69;;;3.49;83.76
57048;BME280;42934;54.294;18.598;2023-02-02T01:50:32;99131.94;;;3.50;83.79
57048;BME280;42934;54.294;18.598;2023-02-02T01:53:04;99134.50;;;3.51;83.92
57048;BME280;42934;54.294;18.598;2023-02-02T01:55:37;99131.06;;;3.51;84.13
57048;BME280;42934;54.294;18.598;2023-02-02T01:58:10;99130.22;;;3.50;83.71
57048;BME280;42934;54.294;18.598;2023-02-02T02:00:42;99135.34;;;3.52;83.89
57048;BME280;42934;54.294;18.598;2023-02-02T02:03:15;99133.75;;;3.48;83.40
57048;BME280;42934;54.294;18.598;2023-02-02T02:05:48;99131.25;;;3.43;83.56
57048;BME280;42934;54.294;18.598;2023-02-02T02:08:25;99135.63;;;3.41;83.72
57048;BME280;42934;54.294;18.598;2023-02-02T02:10:55;99133.03;;;3.41;84.12
57048;BME280;42934;54.294;18.598;2023-02-02T02:13:26;99127.81;;;3.42;83.98
57048;BME280;42934;54.294;18.598;2023-02-02T02:16:21;99122.72;;;3.39;83.72
57048;BME280;42934;54.294;18.598;2023-02-02T02:19:00;99127.06;;;3.39;83.78
57048;BME280;42934;54.294;18.598;2023-02-02T02:21:47;99122.75;;;3.38;83.79
57048;BME280;42934;54.294;18.598;2023-02-02T02:25:19;99136.63;;;3.37;83.77
57048;BME280;42934;54.294;18.598;2023-02-02T02:28:42;99136.72;;;3.34;84.00
57048;BME280;42934;54.294;18.598;2023-02-02T02:31:57;99135.94;;;3.30;83.67
57048;BME280;42934;54.294;18.598;2023-02-02T02:37:28;99141.06;;;3.33;83.66
57048;BME280;42934;54.294;18.598;2023-02-02T02:40:05;99141.06;;;3.33;83.75
57048;BME280;42934;54.294;18.598;2023-02-02T02:42:38;99150.59;;;3.33;84.01
57048;BME280;42934;54.294;18.598;2023-02-02T02:45:11;99141.81;;;3.37;83.80
57048;BME280;42934;54.294;18.598;2023-02-02T02:47:43;99152.16;;;3.38;83.64
57048;BME280;42934;54.294;18.598;2023-02-02T02:50:12;99152.97;;;3.40;83.79
57048;BME280;42934;54.294;18.598;2023-02-02T02:52:41;99148.66;;;3.39;83.61
57048;BME280;42934;54.294;18.598;2023-02-02T02:55:11;99149.56;;;3.38;83.52
57048;BME280;42934;54.294;18.598;2023-02-02T02:57:52;99152.19;;;3.37;83.70
57048;BME280;42934;54.294;18.598;2023-02-02T03:00:39;99153.97;;;3.35;83.56
57048;BME280;42934;54.294;18.598;2023-02-02T03:03:18;99149.69;;;3.34;83.65
57048;BME280;42934;54.294;18.598;2023-02-02T03:05:55;99157.44;;;3.35;83.54
57048;BME280;42934;54.294;18.598;2023-02-02T03:08:31;99159.16;;;3.35;83.46
57048;BME280;42934;54.294;18.598;2023-02-02T03:11:03;99167.94;;;3.31;83.48
57048;BME280;42934;54.294;18.598;2023-02-02T03:13:34;99164.50;;;3.30;84.13
57048;BME280;42934;54.294;18.598;2023-02-02T03:16:03;99161.84;;;3.32;83.94
57048;BME280;42934;54.294;18.598;2023-02-02T03:18:34;99161.91;;;3.29;83.21
57048;BME280;42934;54.294;18.598;2023-02-02T03:21:03;99161.13;;;3.27;83.54
57048;BME280;42934;54.294;18.598;2023-02-02T03:23:32;99170.69;;;3.25;83.39
57048;BME280;42934;54.294;18.598;2023-02-02T03:26:01;99154.22;;;3.26;83.54
57048;BME280;42934;54.294;18.598;2023-02-02T03:28:31;99155.13;;;3.25;83.41
57048;BME280;42934;54.294;18.598;2023-02-02T03:31:01;99157.63;;;3.28;83.55
57048;BME280;42934;54.294;18.598;2023-02-02T03:33:31;99159.41;;;3.26;83.65
57048;BME280;42934;54.294;18.598;2023-02-02T03:36:02;99159.50;;;3.23;83.64
57048;BME280;42934;54.294;18.598;2023-02-02T03:38:32;99165.53;;;3.23;83.63
57048;BME280;42934;54.294;18.598;2023-02-02T03:41:01;99159.50;;;3.23;83.79
57048;BME280;42934;54.294;18.598;2023-02-02T03:43:30;99165.59;;;3.22;83.55
57048;BME280;42934;54.294;18.598;2023-02-02T03:46:01;99167.34;;;3.19;83.46
57048;BME280;42934;54.294;18.598;2023-02-02T03:48:33;99174.25;;;3.21;83.78
57048;BME280;42934;54.294;18.598;2023-02-02T03:51:07;99175.06;;;3.23;83.80
57048;BME280;42934;54.294;18.598;2023-02-02T03:53:36;99174.19;;;3.24;83.93
57048;BME280;42934;54.294;18.598;2023-02-02T03:56:06;99183.56;;;3.28;83.84
57048;BME280;42934;54.294;18.598;2023-02-02T03:58:35;99179.22;;;3.30;83.90
57048;BME280;42934;54.294;18.598;2023-02-02T04:01:05;99181.81;;;3.30;83.49
57048;BME280;42934;54.294;18.598;2023-02-02T04:03:34;99174.09;;;3.27;83.19
57048;BME280;42934;54.294;18.598;2023-02-02T04:06:04;99179.38;;;3.24;83.20
57048;BME280;42934;54.294;18.598;2023-02-02T04:08:34;99183.75;;;3.22;83.27
57048;BME280;42934;54.294;18.598;2023-02-02T04:11:03;99194.13;;;3.22;83.75
57048;BME280;42934;54.294;18.598;2023-02-02T04:13:32;99195.72;;;3.26;83.49
57048;BME280;42934;54.294;18.598;2023-02-02T04:16:02;99204.31;;;3.28;83.56
57048;BME280;42934;54.294;18.598;2023-02-02T04:18:31;99202.50;;;3.31;83.70
57048;BME280;42934;54.294;18.598;2023-02-02T04:21:00;99202.47;;;3.33;83.34
57048;BME280;42934;54.294;18.598;2023-02-02T04:23:30;99200.75;;;3.32;83.20
57048;BME280;42934;54.294;18.598;2023-02-02T04:26:00;99206.84;;;3.31;83.03
57048;BME280;42934;54.294;18.598;2023-02-02T04:28:29;99199.16;;;3.26;83.10
57048;BME280;42934;54.294;18.598;2023-02-02T04:31:00;99202.56;;;3.28;83.15
57048;BME280;42934;54.294;18.598;2023-02-02T04:33:29;99208.66;;;3.27;83.56
57048;BME280;42934;54.294;18.598;2023-02-02T04:35:58;99212.06;;;3.29;83.60
57048;BME280;42934;54.294;18.598;2023-02-02T04:38:27;99220.63;;;3.33;83.35
57048;BME280;42934;54.294;18.598;2023-02-02T04:40:56;99217.97;;;3.34;83.26
57048;BME280;42934;54.294;18.598;2023-02-02T04:43:26;99218.81;;;3.35;83.39
57048;BME280;42934;54.294;18.598;2023-02-02T04:45:55;99221.34;;;3.38;83.38
57048;BME280;42934;54.294;18.598;2023-02-02T04:48:24;99224.00;;;3.36;83.29
57048;BME280;42934;54.294;18.598;2023-02-02T04:50:58;99215.38;;;3.36;83.11
57048;BME280;42934;54.294;18.598;2023-02-02T04:53:28;99235.28;;;3.34;83.09
57048;BME280;42934;54.294;18.598;2023-02-02T04:56:03;99233.59;;;3.33;83.52
57048;BME280;42934;54.294;18.598;2023-02-02T04:58:33;99243.09;;;3.32;83.68
57048;BME280;42934;54.294;18.598;2023-02-02T05:01:08;99247.38;;;3.35;83.40
57048;BME280;42934;54.294;18.598;2023-02-02T05:03:38;99249.09;;;3.36;83.23
57048;BME280;42934;54.294;18.598;2023-02-02T05:06:07;99236.16;;;3.34;83.64
57048;BME280;42934;54.294;18.598;2023-02-02T05:08:36;99245.66;;;3.34;83.16
57048;BME280;42934;54.294;18.598;2023-02-02T05:11:06;99244.06;;;3.30;83.52
57048;BME280;42934;54.294;18.598;2023-02-02T05:13:38;99249.25;;;3.30;83.53
57048;BME280;42934;54.294;18.598;2023-02-02T05:16:07;99252.78;;;3.27;83.42
57048;BME280;42934;54.294;18.598;2023-02-02T05:18:36;99251.91;;;3.27;83.35
57048;BME280;42934;54.294;18.598;2023-02-02T05:21:05;99250.13;;;3.29;83.65
57048;BME280;42934;54.294;18.598;2023-02-02T05:23:34;99257.81;;;3.32;83.69
57048;BME280;42934;54.294;18.598;2023-02-02T05:26:04;99259.53;;;3.33;83.67
57048;BME280;42934;54.294;18.598;2023-02-02T05:28:32;99262.94;;;3.35;83.82
57048;BME280;42934;54.294;18.598;2023-02-02T05:31:06;99260.31;;;3.36;83.86
57048;BME280;42934;54.294;18.598;2023-02-02T05:33:35;99271.59;;;3.35;83.49
57048;BME280;42934;54.294;18.598;2023-02-02T05:36:05;99264.66;;;3.36;83.42
57048;BME280;42934;54.294;18.598;2023-02-02T05:38:35;99265.50;;;3.36;83.34
57048;BME280;42934;54.294;18.598;2023-02-02T05:41:05;99273.28;;;3.36;83.38
57048;BME280;42934;54.294;18.598;2023-02-02T05:43:34;99278.50;;;3.35;83.43
57048;BME280;42934;54.294;18.598;2023-02-02T05:46:03;99282.84;;;3.34;83.50
57048;BME280;42934;54.294;18.598;2023-02-02T05:48:34;99286.28;;;3.35;83.61
57048;BME280;42934;54.294;18.598;2023-02-02T05:51:09;99300.06;;;3.37;83.40
57048;BME280;42934;54.294;18.598;2023-02-02T05:53:40;99304.34;;;3.38;83.63
57048;BME280;42934;54.294;18.598;2023-02-02T05:56:12;99292.19;;;3.41;83.52
57048;BME280;42934;54.294;18.598;2023-02-02T05:58:42;99299.97;;;3.41;83.32
57048;BME280;42934;54.294;18.598;2023-02-02T06:01:14;99310.44;;;3.38;83.48
57048;BME280;42934;54.294;18.598;2023-02-02T06:03:45;99316.47;;;3.39;83.25
57048;BME280;42934;54.294;18.598;2023-02-02T06:06:15;99335.41;;;3.41;83.19
57048;BME280;42934;54.294;18.598;2023-02-02T06:08:44;99329.47;;;3.37;83.47
57048;BME280;42934;54.294;18.598;2023-02-02T06:11:16;99334.66;;;3.37;83.56
57048;BME280;42934;54.294;18.598;2023-02-02T06:13:45;99341.59;;;3.37;83.41
57048;BME280;42934;54.294;18.598;2023-02-02T06:16:15;99349.38;;;3.37;83.60
57048;BME280;42934;54.294;18.598;2023-02-02T06:18:45;99357.13;;;3.38;83.58
57048;BME280;42934;54.294;18.598;2023-02-02T06:21:15;99353.66;;;3.38;83.55
57048;BME280;42934;54.294;18.598;2023-02-02T06:23:46;99357.13;;;3.38;83.57
57048;BME280;42934;54.294;18.598;2023-02-02T06:26:16;99371.09;;;3.33;83.44
57048;BME280;42934;54.294;18.598;2023-02-02T06:28:47;99379.75;;;3.32;83.59
57048;BME280;42934;54.294;18.598;2023-02-02T06:31:16;99390.13;;;3.32;83.51
57048;BME280;42934;54.294;18.598;2023-02-02T06:33:51;99397.06;;;3.31;83.72
57048;BME280;42934;54.294;18.598;2023-02-02T06:36:21;99404.00;;;3.31;83.55
57048;BME280;42934;54.294;18.598;2023-02-02T06:38:52;99410.94;;;3.29;83.66
57048;BME280;42934;54.294;18.598;2023-02-02T06:41:22;99423.13;;;3.27;84.00
57048;BME280;42934;54.294;18.598;2023-02-02T06:43:51;99437.09;;;3.21;83.88
57048;BME280;42934;54.294;18.598;2023-02-02T06:46:21;99444.94;;;3.18;84.03
57048;BME280;42934;54.294;18.598;2023-02-02T06:48:51;99454.50;;;3.14;84.05
57048;BME280;42934;54.294;18.598;2023-02-02T06:51:21;99458.06;;;3.10;84.03
57048;BME280;42934;54.294;18.598;2023-02-02T06:53:50;99465.84;;;3.09;84.33
57048;BME280;42934;54.294;18.598;2023-02-02T06:56:19;99469.34;;;3.08;84.31
57048;BME280;42934;54.294;18.598;2023-02-02T06:58:49;99473.69;;;3.06;84.53
57048;BME280;42934;54.294;18.598;2023-02-02T07:01:18;99484.97;;;3.05;84.51
57048;BME280;42934;54.294;18.598;2023-02-02T07:03:47;99488.47;;;3.02;84.45
57048;BME280;42934;54.294;18.598;2023-02-02T07:06:21;99496.25;;;3.04;84.42
57048;BME280;42934;54.294;18.598;2023-02-02T07:08:51;99503.97;;;3.05;84.42
57048;BME280;42934;54.294;18.598;2023-02-02T07:11:30;99510.91;;;3.05;84.33
57048;BME280;42934;54.294;18.598;2023-02-02T07:14:06;99517.03;;;3.01;84.33
57048;BME280;42934;54.294;18.598;2023-02-02T07:16:36;99522.22;;;3.01;84.51
57048;BME280;42934;54.294;18.598;2023-02-02T07:19:05;99533.41;;;3.04;84.18
57048;BME280;42934;54.294;18.598;2023-02-02T07:21:36;99539.50;;;3.02;84.18
57048;BME280;42934;54.294;18.598;2023-02-02T07:24:06;99541.19;;;3.03;84.10
57048;BME280;42934;54.294;18.598;2023-02-02T07:26:35;99553.31;;;3.02;83.99
57048;BME280;42934;54.294;18.598;2023-02-02T07:29:04;99561.06;;;3.04;84.39
57048;BME280;42934;54.294;18.598;2023-02-02T07:31:33;99568.91;;;3.01;84.41
57048;BME280;42934;54.294;18.598;2023-02-02T07:34:03;99578.38;;;3.02;84.06
57048;BME280;42934;54.294;18.598;2023-02-02T07:36:34;99582.72;;;3.01;84.34
57048;BME280;42934;54.294;18.598;2023-02-02T07:39:03;99587.94;;;3.00;84.03
57048;BME280;42934;54.294;18.598;2023-02-02T07:41:34;99587.97;;;2.98;84.23
57048;BME280;42934;54.294;18.598;2023-02-02T07:44:04;99599.19;;;2.99;84.51
57048;BME280;42934;54.294;18.598;2023-02-02T07:46:34;99603.53;;;2.98;84.33
57048;BME280;42934;54.294;18.598;2023-02-02T07:49:04;99606.97;;;2.97;84.29
57048;BME280;42934;54.294;18.598;2023-02-02T07:51:35;99608.72;;;2.98;84.18
57048;BME280;42934;54.294;18.598;2023-02-02T07:54:07;99611.25;;;3.00;84.18
57048;BME280;42934;54.294;18.598;2023-02-02T07:56:37;99621.69;;;2.98;84.11
57048;BME280;42934;54.294;18.598;2023-02-02T07:59:08;99627.72;;;2.99;84.31
57048;BME280;42934;54.294;18.598;2023-02-02T08:01:38;99636.34;;;2.99;84.32
57048;BME280;42934;54.294;18.598;2023-02-02T08:04:07;99642.38;;;3.00;84.52
57048;BME280;42934;54.294;18.598;2023-02-02T08:06:39;99644.06;;;3.02;84.71
57048;BME280;42934;54.294;18.598;2023-02-02T08:09:09;99651.84;;;3.04;84.69
57048;BME280;42934;54.294;18.598;2023-02-02T08:11:38;99661.31;;;3.05;84.67
57048;BME280;42934;54.294;18.598;2023-02-02T08:14:09;99671.63;;;3.08;84.65
57048;BME280;42934;54.294;18.598;2023-02-02T08:16:40;99673.31;;;3.10;84.86
57048;BME280;42934;54.294;18.598;2023-02-02T08:19:09;99680.19;;;3.13;84.73
57048;BME280;42934;54.294;18.598;2023-02-02T08:21:40;99690.50;;;3.16;84.56
57048;BME280;42934;54.294;18.598;2023-02-02T08:24:09;99693.97;;;3.16;84.71
57048;BME280;42934;54.294;18.598;2023-02-02T08:26:38;99708.63;;;3.17;84.43
57048;BME280;42934;54.294;18.598;2023-02-02T08:29:08;99707.75;;;3.18;84.40
57048;BME280;42934;54.294;18.598;2023-02-02T08:31:39;99710.38;;;3.17;84.68
57048;BME280;42934;54.294;18.598;2023-02-02T08:34:10;99712.09;;;3.18;84.59
57048;BME280;42934;54.294;18.598;2023-02-02T08:36:42;99731.97;;;3.19;84.79
57048;BME280;42934;54.294;18.598;2023-02-02T08:39:11;99733.66;;;3.20;85.22
57048;BME280;42934;54.294;18.598;2023-02-02T08:41:41;99737.09;;;3.24;85.01
57048;BME280;42934;54.294;18.598;2023-02-02T08:44:13;99745.63;;;3.29;85.24
57048;BME280;42934;54.294;18.598;2023-02-02T08:46:43;99744.72;;;3.31;84.78
57048;BME280;42934;54.294;18.598;2023-02-02T08:49:12;99755.03;;;3.36;84.91
57048;BME280;42934;54.294;18.598;2023-02-02T08:51:43;99761.06;;;3.36;84.98
57048;BME280;42934;54.294;18.598;2023-02-02T08:54:12;99776.59;;;3.38;84.84
57048;BME280;42934;54.294;18.598;2023-02-02T08:56:41;99778.28;;;3.40;85.12
57048;BME280;42934;54.294;18.598;2023-02-02T08:59:10;99783.44;;;3.42;85.04
57048;BME280;42934;54.294;18.598;2023-02-02T09:01:39;99789.44;;;3.44;84.85
57048;BME280;42934;54.294;18.598;2023-02-02T09:04:13;99796.38;;;3.45;84.92
57048;BME280;42934;54.294;18.598;2023-02-02T09:06:45;99798.06;;;3.48;84.87
57048;BME280;42934;54.294;18.598;2023-02-02T09:09:14;99799.81;;;3.46;84.94
57048;BME280;42934;54.294;18.598;2023-02-02T09:11:44;99800.66;;;3.48;85.20
57048;BME280;42934;54.294;18.598;2023-02-02T09:14:13;99810.97;;;3.51;84.83
57048;BME280;42934;54.294;18.598;2023-02-02T09:16:43;99819.63;;;3.51;84.75
57048;BME280;42934;54.294;18.598;2023-02-02T09:19:12;99822.22;;;3.51;85.12
57048;BME280;42934;54.294;18.598;2023-02-02T09:21:41;99842.13;;;3.51;85.18
57048;BME280;42934;54.294;18.598;2023-02-02T09:24:12;99840.28;;;3.56;84.85
57048;BME280;42934;54.294;18.598;2023-02-02T09:26:42;99846.38;;;3.56;84.92
57048;BME280;42934;54.294;18.598;2023-02-02T09:29:13;99843.72;;;3.58;84.80
57048;BME280;42934;54.294;18.598;2023-02-02T09:31:44;99852.31;;;3.61;85.04
57048;BME280;42934;54.294;18.598;2023-02-02T09:34:14;99861.00;;;3.60;85.13
57048;BME280;42934;54.294;18.598;2023-02-02T09:36:44;99854.06;;;3.61;84.91
57048;BME280;42934;54.294;18.598;2023-02-02T09:39:15;99860.94;;;3.63;84.75
57048;BME280;42934;54.294;18.598;2023-02-02T09:42:13;99869.63;;;3.62;84.91
57048;BME280;42934;54.294;18.598;2023-02-02T09:44:56;99879.94;;;3.66;85.06
57048;BME280;42934;54.294;18.598;2023-02-02T09:50:44;99893.63;;;3.75;84.83
57048;BME280;42934;54.294;18.598;2023-02-02T09:53:22;99898.81;;;3.77;84.71
57048;BME280;42934;54.294;18.598;2023-02-02T09:55:57;99896.25;;;3.74;84.50
57048;BME280;42934;54.294;18.598;2023-02-02T09:58:31;99894.53;;;3.73;84.65
57048;BME280;42934;54.294;18.598;2023-02-02T10:01:05;99909.31;;;3.69;84.57
57048;BME280;42934;54.294;18.598;2023-02-02T10:03:37;99919.69;;;3.68;84.60
57048;BME280;42934;54.294;18.598;2023-02-02T10:06:17;99926.69;;;3.64;84.70
57048;BME280;42934;54.294;18.598;2023-02-02T10:08:54;99923.34;;;3.56;84.51
57048;BME280;42934;54.294;18.598;2023-02-02T10:11:32;99934.66;;;3.52;84.35
57048;BME280;42934;54.294;18.598;2023-02-02T10:14:14;99934.72;;;3.49;84.39
57048;BME280;42934;54.294;18.598;2023-02-02T10:16:46;99941.66;;;3.47;84.34
57048;BME280;42934;54.294;18.598;2023-02-02T10:19:16;99938.25;;;3.43;84.31
57048;BME280;42934;54.294;18.598;2023-02-02T10:21:50;99946.03;;;3.45;84.20
57048;BME280;42934;54.294;18.598;2023-02-02T10:24:25;99961.53;;;3.49;84.27
57048;BME280;42934;54.294;18.598;2023-02-02T10:26:58;99970.16;;;3.51;84.33
57048;BME280;42934;54.294;18.598;2023-02-02T10:29:35;99974.50;;;3.49;84.17
57048;BME280;42934;54.294;18.598;2023-02-02T10:32:19;99975.53;;;3.39;83.98
57048;BME280;42934;54.294;18.598;2023-02-02T10:35:03;99973.06;;;3.30;83.85
57048;BME280;42934;54.294;18.598;2023-02-02T10:37:41;99969.66;;;3.25;84.59
57048;BME280;42934;54.294;18.598;2023-02-02T10:40:25;99977.47;;;3.23;84.42
57048;BME280;42934;54.294;18.598;2023-02-02T10:43:14;99977.41;;;3.26;84.50
57048;BME280;42934;54.294;18.598;2023-02-02T10:46:20;99989.44;;;3.33;83.95
57048;BME280;42934;54.294;18.598;2023-02-02T10:48:59;99993.56;;;3.48;83.96
57048;BME280;42934;54.294;18.598;2023-02-02T10:51:37;100007.34;;;3.53;84.02
57048;BME280;42934;54.294;18.598;2023-02-02T10:54:24;100006.34;;;3.60;84.12
57048;BME280;42934;54.294;18.598;2023-02-02T10:56:59;100014.94;;;3.66;84.16
57048;BME280;42934;54.294;18.598;2023-02-02T10:59:32;100020.03;;;3.72;83.99
57048;BME280;42934;54.294;18.598;2023-02-02T11:02:09;100020.94;;;3.71;83.93
57048;BME280;42934;54.294;18.598;2023-02-02T11:04:48;100026.78;;;3.82;84.18
57048;BME280;42934;54.294;18.598;2023-02-02T11:07:37;100022.25;;;3.98;83.74
57048;BME280;42934;54.294;18.598;2023-02-02T11:10:07;100031.53;;;4.13;83.85
57048;BME280;42934;54.294;18.598;2023-02-02T11:12:41;99990.81;;;4.12;83.41
57048;BME280;42934;54.294;18.598;2023-02-02T11:15:25;100035.06;;;4.58;83.49
57048;BME280;42934;54.294;18.598;2023-02-02T11:17:55;100038.88;;;4.87;83.73
57048;BME280;42934;54.294;18.598;2023-02-02T11:20:32;100041.16;;;5.45;83.02
57048;BME280;42934;54.294;18.598;2023-02-02T11:23:03;100044.88;;;5.74;82.94
57048;BME280;42934;54.294;18.598;2023-02-02T11:25:33;100049.88;;;5.82;83.22
57048;BME280;42934;54.294;18.598;2023-02-02T11:28:10;100053.41;;;6.87;80.56
57048;BME280;42934;54.294;18.598;2023-02-02T11:30:48;100056.16;;;7.72;78.33
57048;BME280;42934;54.294;18.598;2023-02-02T11:33:26;100056.00;;;8.05;76.57
57048;BME280;42934;54.294;18.598;2023-02-02T11:35:57;100059.28;;;7.56;77.09
57048;BME280;42934;54.294;18.598;2023-02-02T11:38:27;100071.44;;;6.96;77.46
57048;BME280;42934;54.294;18.598;2023-02-02T11:40:58;100078.72;;;6.50;78.20
57048;BME280;42934;54.294;18.598;2023-02-02T11:43:33;100089.88;;;6.20;78.40
57048;BME280;42934;54.294;18.598;2023-02-02T11:46:17;100093.06;;;5.94;78.75
57048;BME280;42934;54.294;18.598;2023-02-02T11:48:50;100091.91;;;5.68;79.44
57048;BME280;42934;54.294;18.598;2023-02-02T11:51:25;100094.97;;;5.45;79.09
57048;BME280;42934;54.294;18.598;2023-02-02T11:54:02;100081.66;;;5.17;79.54
57048;BME280;42934;54.294;18.598;2023-02-02T11:56:35;100099.81;;;5.20;78.98
57048;BME280;42934;54.294;18.598;2023-02-02T11:59:08;100105.19;;;5.11;79.71
57048;BME280;42934;54.294;18.598;2023-02-02T12:04:50;100108.56;;;5.16;78.86
57048;BME280;42934;54.294;18.598;2023-02-02T12:07:26;100106.88;;;5.15;78.50
57048;BME280;42934;54.294;18.598;2023-02-02T12:09:58;100115.41;;;5.20;78.80
57048;BME280;42934;54.294;18.598;2023-02-02T12:12:40;100130.19;;;5.19;78.50
57048;BME280;42934;54.294;18.598;2023-02-02T12:15:21;100130.06;;;5.27;78.19
57048;BME280;42934;54.294;18.598;2023-02-02T12:18:01;100129.44;;;5.13;78.71
57048;BME280;42934;54.294;18.598;2023-02-02T12:20:42;100151.34;;;5.01;78.72
57048;BME280;42934;54.294;18.598;2023-02-02T12:23:33;100160.22;;;4.89;78.20
57048;BME280;42934;54.294;18.598;2023-02-02T12:26:11;100168.25;;;4.75;77.97
57048;BME280;42934;54.294;18.598;2023-02-02T12:29:05;100177.09;;;4.65;78.31
57048;BME280;42934;54.294;18.598;2023-02-02T12:31:52;100181.66;;;4.51;78.97
57048;BME280;42934;54.294;18.598;2023-02-02T12:34:31;100184.41;;;4.40;78.95
57048;BME280;42934;54.294;18.598;2023-02-02T12:37:11;100189.75;;;4.32;78.70
57048;BME280;42934;54.294;18.598;2023-02-02T12:39:59;100195.03;;;4.25;79.06
57048;BME280;42934;54.294;18.598;2023-02-02T12:43:06;100204.66;;;4.17;79.04
57048;BME280;42934;54.294;18.598;2023-02-02T12:45:59;100211.66;;;4.12;79.12
57048;BME280;42934;54.294;18.598;2023-02-02T12:48:49;100209.19;;;4.02;79.11
57048;BME280;42934;54.294;18.598;2023-02-02T12:51:34;100217.09;;;3.93;79.44
57048;BME280;42934;54.294;18.598;2023-02-02T12:54:20;100218.06;;;3.86;79.39
57048;BME280;42934;54.294;18.598;2023-02-02T12:57:20;100230.31;;;3.75;79.62
57048;BME280;42934;54.294;18.598;2023-02-02T13:00:07;100232.16;;;3.65;79.63
57048;BME280;42934;54.294;18.598;2023-02-02T13:02:49;100240.03;;;3.59;79.69
57048;BME280;42934;54.294;18.598;2023-02-02T13:05:38;100239.16;;;3.57;79.86
57048;BME280;42934;54.294;18.598;2023-02-02T13:08:15;100237.44;;;3.56;79.95
57048;BME280;42934;54.294;18.598;2023-02-02T13:10:52;100236.59;;;3.54;79.73
57048;BME280;42934;54.294;18.598;2023-02-02T13:13:28;100248.75;;;3.50;79.85
57048;BME280;42934;54.294;18.598;2023-02-02T13:16:04;100253.09;;;3.48;80.05
57048;BME280;42934;54.294;18.598;2023-02-02T13:18:37;100259.19;;;3.46;80.01
57048;BME280;42934;54.294;18.598;2023-02-02T13:21:11;100264.38;;;3.44;80.36
57048;BME280;42934;54.294;18.598;2023-02-02T13:23:46;100276.50;;;3.45;80.25
57048;BME280;42934;54.294;18.598;2023-02-02T13:26:20;100283.44;;;3.45;80.21
57048;BME280;42934;54.294;18.598;2023-02-02T13:28:53;100283.47;;;3.41;80.42
57048;BME280;42934;54.294;18.598;2023-02-02T13:31:27;100282.59;;;3.38;80.54
57048;BME280;42934;54.294;18.598;2023-02-02T13:34:04;100295.59;;;3.36;80.30
57048;BME280;42934;54.294;18.598;2023-02-02T13:36:40;100308.56;;;3.35;80.51
57048;BME280;42934;54.294;18.598;2023-02-02T13:39:16;100313.78;;;3.33;80.57